Time;durP1;ratioP1;P1;durP2;ratioP2;P2;SDS_P1;SDS_P2;PMS_P1;PMS_P2;Temp;Humidity;BMP_temperature;BMP_pressure;BME280_temperature;BME280_humidity;BME280_pressure;Samples;Min_cycle;Max_cycle;Signal;HPM_P1;HPM_P2
2023/01/18 00:01:09;;;;;;;10.05;7.03;;;-0.30;99.90;;;;;;4998523;27;94146;-33
2023/01/18 00:03:37;;;;;;;7.93;7.22;;;-0.40;99.90;;;;;;4998728;27;94593;-29
2023/01/18 00:06:08;;;;;;;8.32;6.60;;;-0.30;99.90;;;;;;4997058;27;94729;-34
2023/01/18 00:08:35;;;;;;;9.25;7.38;;;-0.30;99.90;;;;;;4998321;27;94351;-33
2023/01/18 00:11:14;;;;;;;7.45;6.75;;;-0.40;99.90;;;;;;4997347;27;93068;-32
2023/01/18 00:13:39;;;;;;;9.00;8.07;;;-0.40;99.90;;;;;;4998207;27;91644;-30
2023/01/18 00:16:11;;;;;;;11.02;6.95;;;-0.40;99.90;;;;;;4997331;27;94170;-30
2023/01/18 00:18:37;;;;;;;8.50;7.60;;;-0.40;99.90;;;;;;4997474;27;94511;-35
2023/01/18 00:21:05;;;;;;;8.20;7.47;;;-0.40;99.90;;;;;;4997536;27;93623;-32
2023/01/18 00:23:30;;;;;;;8.63;7.00;;;-0.40;99.90;;;;;;4997299;28;92138;-32
2023/01/18 00:26:08;;;;;;;7.07;6.30;;;-0.40;99.90;;;;;;4997329;28;94652;-30
2023/01/18 00:28:34;;;;;;;9.27;8.03;;;-0.50;99.90;;;;;;4998294;28;94971;-31
2023/01/18 00:31:00;;;;;;;8.27;6.63;;;-0.40;99.90;;;;;;4997287;28;93057;-32
2023/01/18 00:33:25;;;;;;;8.00;7.25;;;-0.40;99.90;;;;;;4997101;27;93592;-32
2023/01/18 00:35:56;;;;;;;10.73;7.75;;;-0.40;99.90;;;;;;4996785;28;94599;-32
2023/01/18 00:38:21;;;;;;;9.63;7.45;;;-0.50;99.90;;;;;;4998534;27;94223;-32
2023/01/18 00:40:47;;;;;;;9.52;8.55;;;-0.50;99.90;;;;;;4997339;27;92538;-32
2023/01/18 00:45:56;;;;;;;9.18;7.35;;;-0.50;99.90;;;;;;4996212;28;96510;-33
2023/01/18 00:48:22;;;;;;;10.35;8.27;;;-0.50;99.90;;;;;;4997116;28;95788;-31
2023/01/18 00:50:48;;;;;;;10.70;8.98;;;-0.50;99.90;;;;;;4997850;27;92760;-32
2023/01/18 00:53:13;;;;;;;9.48;8.43;;;-0.50;99.90;;;;;;4997278;28;92981;-32
2023/01/18 00:55:39;;;;;;;16.08;7.93;;;-0.50;99.90;;;;;;5008727;27;94179;-32
2023/01/18 00:58:04;;;;;;;10.27;7.60;;;-0.50;99.90;;;;;;4998306;27;94589;-34
2023/01/18 01:00:31;;;;;;;8.02;6.97;;;-0.50;99.90;;;;;;4979394;28;92963;-32
2023/01/18 01:02:57;;;;;;;9.23;8.38;;;-0.60;99.90;;;;;;4997478;27;92432;-32
2023/01/18 01:08:15;;;;;;;10.00;8.70;;;-0.60;99.90;;;;;;4997288;28;94672;-31
2023/01/18 01:10:46;;;;;;;9.35;8.45;;;-0.60;99.90;;;;;;4995926;28;94208;-30
2023/01/18 01:26:54;;;;;;;10.35;9.05;;;-0.60;99.90;;;;;;4995303;27;95765;-31
2023/01/18 01:29:21;;;;;;;10.68;9.60;;;-0.70;99.90;;;;;;4979579;28;94976;-31
2023/01/18 01:31:46;;;;;;;10.95;9.52;;;-0.60;99.90;;;;;;4978519;27;94334;-32
2023/01/18 01:34:12;;;;;;;11.00;9.80;;;-0.70;99.90;;;;;;4996648;27;94396;-33
2023/01/18 01:36:37;;;;;;;10.57;9.50;;;-0.70;99.90;;;;;;4995564;28;95572;-30
2023/01/18 01:39:05;;;;;;;14.07;9.90;;;-0.70;99.90;;;;;;4995965;27;95293;-30
2023/01/18 01:41:33;;;;;;;10.32;8.07;;;-0.70;99.90;;;;;;4999259;27;92684;-35
2023/01/18 01:44:05;;;;;;;9.82;8.93;;;-0.70;99.90;;;;;;5015038;27;92144;-32
2023/01/18 01:46:30;;;;;;;12.68;10.35;;;-0.70;99.90;;;;;;5012017;27;94332;-33
2023/01/18 01:49:20;;;;;;;11.55;10.40;;;-0.70;99.90;;;;;;5006725;27;93166;-31
2023/01/18 01:51:55;;;;;;;11.27;9.20;;;-0.70;99.90;;;;;;5006995;28;94330;-32
2023/01/18 01:54:27;;;;;;;11.20;9.55;;;-0.70;99.90;;;;;;4997817;27;92732;-34
2023/01/18 01:56:57;;;;;;;14.10;10.82;;;-0.80;99.90;;;;;;4996612;27;94747;-30
2023/01/18 01:59:23;;;;;;;11.63;10.43;;;-0.80;99.90;;;;;;4998475;27;94981;-30
2023/01/18 02:01:48;;;;;;;17.17;11.35;;;-0.80;99.90;;;;;;5005297;27;95398;-30
2023/01/18 02:04:14;;;;;;;12.02;10.25;;;-0.80;99.90;;;;;;4995468;27;92976;-33
2023/01/18 02:06:40;;;;;;;13.70;12.07;;;-0.70;99.90;;;;;;4994930;28;94558;-33
2023/01/18 02:09:21;;;;;;;15.52;11.32;;;-0.70;99.90;;;;;;4995385;27;94480;-31
2023/01/18 02:11:50;;;;;;;17.92;11.30;;;-0.70;99.90;;;;;;4994786;27;93473;-32
2023/01/18 02:14:16;;;;;;;;;;;-0.80;99.90;;;;;;4995859;27;92113;-34
2023/01/18 02:17:08;;;;;;;21.70;11.45;;;-0.70;99.90;;;;;;5002583;27;94867;-32
2023/01/18 02:19:34;;;;;;;13.48;12.25;;;-0.80;99.90;;;;;;5001822;28;95514;-33
2023/01/18 02:22:28;;;;;;;13.77;10.32;;;-0.80;99.90;;;;;;5007827;27;93310;-30
2023/01/18 02:25:06;;;;;;;12.43;11.18;;;-0.80;99.90;;;;;;4994825;28;93104;-33
2023/01/18 02:27:44;;;;;;;18.47;12.30;;;-0.80;99.90;;;;;;4994586;28;95591;-31
2023/01/18 02:30:32;;;;;;;12.93;11.43;;;-0.80;99.90;;;;;;5009047;27;95580;-31
2023/01/18 02:33:06;;;;;;;13.18;11.38;;;-0.80;99.90;;;;;;4994964;27;94653;-31
2023/01/18 02:35:50;;;;;;;13.05;11.75;;;-0.80;99.90;;;;;;4995433;27;93326;-30
2023/01/18 02:38:46;;;;;;;13.85;11.65;;;-0.80;99.90;;;;;;5008707;27;94240;-30
2023/01/18 02:47:16;;;;;;;13.15;11.68;;;-0.80;99.90;;;;;;4998522;27;92474;-30
2023/01/18 02:49:42;;;;;;;15.63;13.38;;;-0.80;99.90;;;;;;4998436;27;95649;-33
2023/01/18 02:52:46;;;;;;;16.67;13.23;;;-0.80;99.90;;;;;;5014106;27;95167;-31
2023/01/18 02:55:35;;;;;;;18.02;12.70;;;-0.80;99.90;;;;;;5005569;27;95474;-32
2023/01/18 02:58:06;;;;;;;14.02;11.75;;;-0.80;99.90;;;;;;4998379;28;92153;-32
2023/01/18 03:00:36;;;;;;;15.43;12.65;;;-0.90;99.90;;;;;;4998288;27;94279;-31
2023/01/18 03:03:04;;;;;;;14.00;11.43;;;-0.90;99.90;;;;;;4997909;27;94904;-34
2023/01/18 03:05:32;;;;;;;13.75;11.23;;;-0.90;99.90;;;;;;4998295;27;94502;-35
2023/01/18 03:08:23;;;;;;;14.07;12.57;;;-0.80;99.90;;;;;;4998213;27;93001;-33
2023/01/18 03:11:03;;;;;;;14.95;13.27;;;-0.80;99.90;;;;;;4997304;27;94301;-33
2023/01/18 03:13:50;;;;;;;14.40;12.65;;;-0.80;99.90;;;;;;4997999;27;94092;-32
2023/01/18 03:16:23;;;;;;;13.82;12.27;;;-0.90;99.90;;;;;;4998132;27;94618;-33
2023/01/18 03:19:01;;;;;;;13.38;11.90;;;-0.90;99.90;;;;;;4997480;27;94349;-31
2023/01/18 03:21:40;;;;;;;19.00;13.73;;;-0.90;99.90;;;;;;4996925;27;95068;-30
2023/01/18 03:24:08;;;;;;;17.52;11.77;;;-0.90;99.90;;;;;;4997411;27;95752;-34
2023/01/18 03:26:45;;;;;;;14.50;12.23;;;-0.90;99.90;;;;;;4997583;28;93267;-34
2023/01/18 03:35:10;;;;;;;14.50;12.55;;;-0.90;99.90;;;;;;4997283;28;94606;-32
2023/01/18 03:37:39;;;;;;;14.52;13.00;;;-0.90;99.90;;;;;;4997560;27;94564;-35
2023/01/18 03:40:12;;;;;;;13.13;11.75;;;-0.90;99.90;;;;;;4998297;28;92632;-32
2023/01/18 03:42:53;;;;;;;13.25;11.43;;;-0.90;99.90;;;;;;4997000;27;95007;-33
2023/01/18 03:45:32;;;;;;;14.27;11.35;;;-0.90;99.90;;;;;;4997076;27;95166;-30
2023/01/18 03:47:58;;;;;;;;;;;-0.90;99.90;;;;;;4996767;28;95759;-33
2023/01/18 03:50:33;;;;;;;14.52;10.63;;;-0.90;99.90;;;;;;5000056;27;92967;-32
2023/01/18 03:53:06;;;;;;;16.63;11.82;;;-0.80;99.90;;;;;;5007753;28;93960;-31
2023/01/18 03:55:45;;;;;;;13.50;12.10;;;-0.80;99.90;;;;;;5011177;27;94792;-33
2023/01/18 03:58:17;;;;;;;19.20;12.05;;;-0.80;99.90;;;;;;4997442;28;92545;-31
2023/01/18 04:00:43;;;;;;;13.88;12.20;;;-0.80;99.90;;;;;;4996509;27;92124;-32
2023/01/18 04:03:09;;;;;;;14.90;11.45;;;-0.80;99.90;;;;;;4996892;27;95031;-31
2023/01/18 04:05:35;;;;;;;11.40;10.25;;;-0.80;99.90;;;;;;4997118;27;96145;-32
2023/01/18 04:08:01;;;;;;;11.80;10.57;;;-0.80;99.90;;;;;;4996622;28;95342;-35
2023/01/18 04:10:26;;;;;;;16.15;11.82;;;-0.80;99.90;;;;;;4997245;27;94529;-31
2023/01/18 04:12:52;;;;;;;19.15;10.85;;;-0.80;99.90;;;;;;4995416;27;95670;-31
2023/01/18 04:15:18;;;;;;;12.68;11.40;;;-0.80;99.90;;;;;;4996983;27;95385;-33
2023/01/18 04:17:44;;;;;;;15.98;11.63;;;-0.80;99.90;;;;;;4996635;27;93560;-32
2023/01/18 04:20:09;;;;;;;17.38;12.27;;;-0.80;99.90;;;;;;4997210;27;92615;-32
2023/01/18 04:22:35;;;;;;;22.30;13.52;;;-0.80;99.90;;;;;;4996630;27;94875;-37
2023/01/18 04:25:01;;;;;;;12.73;11.43;;;-0.80;99.90;;;;;;4995928;28;94600;-30
2023/01/18 04:27:26;;;;;;;11.77;10.55;;;-0.80;99.90;;;;;;4996789;28;93405;-31
2023/01/18 04:29:52;;;;;;;12.55;9.52;;;-0.80;99.90;;;;;;5010646;28;94445;-31
2023/01/18 04:32:18;;;;;;;13.55;10.75;;;-0.80;99.90;;;;;;4997204;27;94360;-33
2023/01/18 04:34:43;;;;;;;17.90;11.65;;;-0.80;99.90;;;;;;5010147;27;94719;-32
2023/01/18 04:37:09;;;;;;;12.35;10.65;;;-0.80;99.90;;;;;;4996209;28;93198;-32
2023/01/18 04:39:34;;;;;;;12.43;11.13;;;-0.80;99.90;;;;;;4997614;27;94657;-31
2023/01/18 04:42:00;;;;;;;13.30;11.93;;;-0.80;99.90;;;;;;4995606;27;94801;-31
2023/01/18 04:44:26;;;;;;;16.60;13.50;;;-0.80;99.90;;;;;;4995859;27;94857;-32
2023/01/18 04:46:51;;;;;;;11.13;10.10;;;-0.80;99.90;;;;;;4995622;27;93237;-33
2023/01/18 04:49:17;;;;;;;17.30;13.20;;;-0.80;99.90;;;;;;4996836;28;94769;-30
2023/01/18 04:51:44;;;;;;;14.45;11.07;;;-0.80;99.90;;;;;;5008935;28;94752;-32
2023/01/18 04:54:11;;;;;;;13.32;11.90;;;-0.80;99.90;;;;;;4997569;28;93777;-33
2023/01/18 04:56:36;;;;;;;13.65;11.90;;;-0.80;99.90;;;;;;4996856;27;92840;-33
2023/01/18 04:59:02;;;;;;;20.55;12.52;;;-0.80;99.90;;;;;;4999069;27;94668;-32
2023/01/18 05:01:28;;;;;;;14.25;12.82;;;-0.80;99.90;;;;;;5005814;27;95553;-35
2023/01/18 05:03:55;;;;;;;15.00;13.15;;;-0.90;99.90;;;;;;4996342;27;95555;-32
2023/01/18 05:06:21;;;;;;;13.93;12.43;;;-0.90;99.90;;;;;;4978142;28;94630;-32
2023/01/18 05:08:47;;;;;;;13.52;12.13;;;-0.90;99.90;;;;;;4996018;28;94332;-31
2023/01/18 05:11:19;;;;;;;14.35;12.85;;;-0.90;99.90;;;;;;5001271;27;94302;-31
2023/01/18 05:13:45;;;;;;;15.13;13.50;;;-0.80;99.90;;;;;;5003491;27;94358;-32
2023/01/18 05:16:19;;;;;;;17.73;13.45;;;-0.80;99.90;;;;;;4996249;27;94045;-32
2023/01/18 05:18:45;;;;;;;16.65;12.18;;;-0.90;99.90;;;;;;5007556;28;92537;-32
2023/01/18 05:21:12;;;;;;;16.67;13.45;;;-0.90;99.90;;;;;;4998880;27;95098;-32
2023/01/18 05:23:40;;;;;;;15.50;13.23;;;-0.90;99.90;;;;;;4994906;27;95001;-30
2023/01/18 05:26:13;;;;;;;12.57;11.25;;;-0.90;99.90;;;;;;4995249;27;95707;-31
2023/01/18 05:28:39;;;;;;;14.10;12.57;;;-0.90;99.90;;;;;;4995545;27;95342;-32
2023/01/18 05:31:05;;;;;;;14.68;12.50;;;-0.90;99.90;;;;;;4995514;27;94734;-30
2023/01/18 05:33:31;;;;;;;15.57;14.00;;;-0.90;99.90;;;;;;4995549;27;94807;-32
2023/01/18 05:35:57;;;;;;;13.20;11.80;;;-0.90;99.90;;;;;;4994411;27;93127;-31
2023/01/18 05:38:23;;;;;;;17.25;13.52;;;-0.90;99.90;;;;;;5008395;28;92829;-33
2023/01/18 05:40:53;;;;;;;20.00;13.15;;;-0.90;99.90;;;;;;5005607;28;94590;-32
2023/01/18 05:43:24;;;;;;;21.85;13.23;;;-0.90;99.90;;;;;;4997973;27;92603;-29
2023/01/18 05:45:50;;;;;;;14.98;13.20;;;-0.80;99.90;;;;;;5005855;28;93958;-33
2023/01/18 05:48:16;;;;;;;18.30;13.60;;;-0.90;99.90;;;;;;5012734;28;94601;-30
2023/01/18 05:50:44;;;;;;;15.25;12.82;;;-0.80;99.90;;;;;;4998950;28;93913;-33
2023/01/18 05:53:11;;;;;;;17.77;11.82;;;-0.80;99.90;;;;;;5004654;27;95371;-34
2023/01/18 05:55:36;;;;;;;14.77;12.75;;;-0.80;99.90;;;;;;4995745;27;94597;-32
2023/01/18 05:58:02;;;;;;;16.30;13.00;;;-0.80;99.90;;;;;;4995202;27;94710;-34
2023/01/18 06:00:28;;;;;;;13.88;12.18;;;-0.80;99.90;;;;;;4995617;28;94215;-31
2023/01/18 06:02:54;;;;;;;16.95;13.20;;;-0.80;99.90;;;;;;4994235;28;94729;-31
2023/01/18 06:05:21;;;;;;;15.38;12.95;;;-0.90;99.90;;;;;;4996353;28;93780;-33
2023/01/18 06:07:47;;;;;;;15.30;12.13;;;-0.80;99.90;;;;;;4995379;27;93625;-31
2023/01/18 06:10:13;;;;;;;14.32;12.77;;;-0.80;99.90;;;;;;4995192;27;95715;-31
2023/01/18 06:12:39;;;;;;;14.10;12.73;;;-0.90;99.90;;;;;;4994664;27;94507;-35
2023/01/18 06:15:05;;;;;;;15.18;13.45;;;-0.90;99.90;;;;;;4997669;27;95012;-32
2023/01/18 06:17:31;;;;;;;23.65;13.13;;;-0.90;99.90;;;;;;4998648;27;94426;-34
2023/01/18 06:19:57;;;;;;;14.80;11.10;;;-0.90;99.90;;;;;;4998631;27;94640;-31
2023/01/18 06:22:22;;;;;;;14.68;12.25;;;-0.80;99.90;;;;;;4998102;28;94098;-31
2023/01/18 06:24:48;;;;;;;15.25;13.05;;;-0.80;99.90;;;;;;4998640;27;93564;-33
2023/01/18 06:27:14;;;;;;;15.55;12.75;;;-0.80;99.90;;;;;;4998574;28;93439;-32
2023/01/18 06:29:40;;;;;;;12.32;11.13;;;-0.80;99.90;;;;;;4998176;27;94864;-32
2023/01/18 06:32:06;;;;;;;18.55;13.52;;;-0.80;99.90;;;;;;4998723;27;94577;-32
2023/01/18 06:34:32;;;;;;;14.30;12.57;;;-0.80;99.90;;;;;;5009750;27;93929;-31
2023/01/18 06:36:58;;;;;;;14.40;12.00;;;-0.90;99.90;;;;;;5017324;28;93338;-34
2023/01/18 06:39:24;;;;;;;14.15;12.15;;;-0.90;99.90;;;;;;5017232;27;96573;-32
2023/01/18 06:41:49;;;;;;;15.63;13.27;;;-0.90;99.90;;;;;;5016823;28;95623;-34
2023/01/18 06:44:15;;;;;;;16.38;13.00;;;-0.90;99.90;;;;;;5021382;27;94246;-32
2023/01/18 06:46:43;;;;;;;13.55;12.13;;;-0.90;99.90;;;;;;5023001;27;93546;-31
2023/01/18 06:49:10;;;;;;;13.00;10.73;;;-0.90;99.90;;;;;;5020713;27;94491;-30
2023/01/18 06:51:36;;;;;;;16.67;12.35;;;-0.90;99.90;;;;;;5020676;27;94104;-36
2023/01/18 06:54:01;;;;;;;15.85;13.95;;;-0.90;99.90;;;;;;5014340;28;94373;-32
2023/01/18 06:56:28;;;;;;;13.85;12.40;;;-0.90;99.90;;;;;;4999153;27;91506;-35
2023/01/18 06:58:56;;;;;;;14.77;13.25;;;-0.90;99.90;;;;;;4997859;27;94524;-30
2023/01/18 07:01:22;;;;;;;20.98;12.65;;;-1.00;99.90;;;;;;4997963;27;94262;-32
2023/01/18 07:03:48;;;;;;;17.98;13.88;;;-1.00;99.90;;;;;;4997063;28;95857;-34
2023/01/18 07:06:14;;;;;;;17.58;15.00;;;-1.00;99.90;;;;;;4998240;28;92502;-30
2023/01/18 07:08:39;;;;;;;16.98;14.45;;;-1.00;99.90;;;;;;4997159;27;94660;-31
2023/01/18 07:11:07;;;;;;;18.52;13.98;;;-1.00;99.90;;;;;;5012661;28;94402;-32
2023/01/18 07:13:33;;;;;;;18.07;13.97;;;-0.90;99.90;;;;;;4998907;27;93245;-31
2023/01/18 07:16:00;;;;;;;21.27;15.68;;;-1.00;99.90;;;;;;4979230;28;93535;-32
2023/01/18 07:18:28;;;;;;;21.02;14.15;;;-1.00;99.90;;;;;;4998069;27;93103;-33
2023/01/18 07:21:07;;;;;;;15.30;13.73;;;-1.00;99.90;;;;;;4998041;27;93964;-30
2023/01/18 07:23:37;;;;;;;26.20;15.18;;;-1.10;99.90;;;;;;4998524;27;93991;-33
2023/01/18 07:26:15;;;;;;;16.35;14.30;;;-1.10;99.90;;;;;;5000868;27;92690;-31
2023/01/18 07:28:41;;;;;;;17.55;14.93;;;-1.10;99.90;;;;;;5015408;27;96520;-31
2023/01/18 07:31:07;;;;;;;20.25;13.90;;;-1.10;99.90;;;;;;5015846;27;96244;-33
2023/01/18 07:33:34;;;;;;;21.38;13.65;;;-1.00;99.90;;;;;;5016458;27;94365;-32
2023/01/18 07:36:00;;;;;;;22.35;15.13;;;-1.00;99.90;;;;;;5016091;27;92340;-33
2023/01/18 07:38:26;;;;;;;19.92;15.50;;;-1.00;99.90;;;;;;5015506;27;94425;-31
2023/01/18 07:41:07;;;;;;;20.80;15.25;;;-1.10;99.90;;;;;;5013564;28;94626;-33
2023/01/18 07:43:33;;;;;;;17.08;13.85;;;-1.10;99.90;;;;;;5013980;28;94665;-34
2023/01/18 07:46:00;;;;;;;18.42;14.70;;;-1.10;99.90;;;;;;5016111;27;93224;-33
2023/01/18 07:48:27;;;;;;;23.13;13.20;;;-1.10;99.90;;;;;;5016953;27;94737;-31
2023/01/18 07:51:06;;;;;;;21.05;17.40;;;-1.10;99.90;;;;;;5014141;28;96220;-32
2023/01/18 07:53:33;;;;;;;23.20;14.82;;;-1.10;99.90;;;;;;5013848;28;93496;-31
2023/01/18 07:56:21;;;;;;;20.00;13.95;;;-1.10;99.90;;;;;;5003755;28;93794;-34
2023/01/18 07:58:47;;;;;;;20.08;14.77;;;-1.10;99.90;;;;;;5017496;27;94886;-31
2023/01/18 08:01:15;;;;;;;17.00;15.07;;;-1.10;99.90;;;;;;5022924;27;94931;-35
2023/01/18 08:03:42;;;;;;;15.63;13.32;;;-1.10;99.90;;;;;;5028201;27;93046;-32
2023/01/18 08:06:11;;;;;;;21.35;16.30;;;-1.10;99.90;;;;;;5021759;27;93544;-34
2023/01/18 08:08:37;;;;;;;20.00;16.80;;;-1.10;99.90;;;;;;5026537;27;94404;-31
2023/01/18 08:11:05;;;;;;;22.85;16.85;;;-1.10;99.90;;;;;;5024613;27;95137;-30
2023/01/18 08:13:31;;;;;;;20.37;17.53;;;-1.00;99.90;;;;;;5025722;27;94008;-32
2023/01/18 08:15:59;;;;;;;19.83;14.30;;;-1.00;99.90;;;;;;5024674;27;93051;-31
2023/01/18 08:18:25;;;;;;;17.83;15.75;;;-1.00;99.90;;;;;;5022828;27;96077;-31
2023/01/18 08:20:50;;;;;;;21.65;18.38;;;-1.00;99.90;;;;;;5026807;27;97391;-33
2023/01/18 08:23:16;;;;;;;18.73;14.27;;;-1.00;99.90;;;;;;5022281;27;93568;-33
2023/01/18 08:25:43;;;;;;;18.38;15.85;;;-1.00;99.90;;;;;;5028131;27;94725;-32
2023/01/18 08:28:09;;;;;;;28.83;18.33;;;-0.90;99.90;;;;;;5022391;27;94942;-34
2023/01/18 08:30:37;;;;;;;26.15;19.17;;;-0.90;99.90;;;;;;5025771;27;95298;-35
2023/01/18 08:33:04;;;;;;;21.70;17.75;;;-0.90;99.90;;;;;;5025129;27;92660;-31
2023/01/18 08:35:32;;;;;;;19.45;17.13;;;-0.80;99.90;;;;;;5017127;27;93725;-30
2023/01/18 08:38:00;;;;;;;19.13;15.15;;;-0.80;99.90;;;;;;5025159;27;95096;-32
2023/01/18 08:40:27;;;;;;;20.55;16.58;;;-0.80;99.90;;;;;;5022519;27;94678;-33
2023/01/18 08:42:57;;;;;;;18.98;15.73;;;-0.80;99.90;;;;;;5027611;27;95134;-33
2023/01/18 08:45:23;;;;;;;18.95;15.05;;;-0.70;99.90;;;;;;5014642;27;93161;-31
2023/01/18 08:47:59;;;;;;;21.85;18.33;;;-0.70;99.90;;;;;;5013247;28;94342;-30
2023/01/18 08:50:25;;;;;;;21.80;17.55;;;-0.70;99.90;;;;;;5010341;27;94124;-31
2023/01/18 08:52:53;;;;;;;22.13;16.50;;;-0.60;99.90;;;;;;4987843;28;92235;-32
2023/01/18 08:55:20;;;;;;;17.77;15.98;;;-0.60;99.90;;;;;;5009163;27;93382;-30
2023/01/18 08:57:46;;;;;;;20.33;17.27;;;-0.50;99.90;;;;;;4993701;27;94432;-33
2023/01/18 09:00:12;;;;;;;21.70;16.70;;;-0.50;99.90;;;;;;4995534;27;93897;-32
2023/01/18 09:02:38;;;;;;;17.70;15.00;;;-0.40;99.90;;;;;;4994764;27;92666;-33
2023/01/18 09:05:05;;;;;;;24.55;17.35;;;-0.30;99.90;;;;;;4993776;28;93745;-31
2023/01/18 09:07:30;;;;;;;22.33;15.57;;;-0.20;99.90;;;;;;4993427;28;96637;-34
2023/01/18 09:09:56;;;;;;;20.35;16.95;;;-0.10;99.90;;;;;;4993883;27;94203;-31
2023/01/18 09:12:22;;;;;;;19.17;15.75;;;0.00;99.90;;;;;;4994505;27;92944;-32
2023/01/18 09:14:48;;;;;;;24.70;16.60;;;0.20;99.90;;;;;;5001441;28;94412;-31
2023/01/18 09:17:16;;;;;;;21.67;14.88;;;0.40;99.90;;;;;;5000774;28;94485;-33
2023/01/18 09:19:42;;;;;;;27.88;16.55;;;0.60;99.90;;;;;;4993580;27;94609;-33
2023/01/18 09:22:09;;;;;;;17.60;15.25;;;0.80;99.90;;;;;;4994896;27;93359;-33
2023/01/18 09:24:35;;;;;;;17.38;15.00;;;1.00;99.90;;;;;;4994555;27;91460;-32
2023/01/18 09:27:01;;;;;;;16.85;14.20;;;1.20;99.90;;;;;;4993425;27;95027;-34
2023/01/18 09:29:27;;;;;;;18.02;13.88;;;1.40;99.90;;;;;;4994089;27;94810;-31
2023/01/18 09:31:55;;;;;;;18.98;14.45;;;1.40;99.90;;;;;;4993358;27;95046;-31
2023/01/18 09:34:20;;;;;;;18.10;12.77;;;1.60;99.90;;;;;;4994210;28;94814;-34
2023/01/18 09:36:50;;;;;;;15.18;13.60;;;1.90;99.90;;;;;;4993907;27;94694;-33
2023/01/18 09:39:15;;;;;;;15.85;13.85;;;2.10;99.90;;;;;;4993802;28;94548;-31
2023/01/18 09:41:45;;;;;;;14.20;12.32;;;2.30;99.90;;;;;;4993498;28;94490;-32
2023/01/18 09:44:25;;;;;;;20.65;13.73;;;2.30;99.90;;;;;;5052168;22;93719;-32
2023/01/18 09:46:58;;;;;;;18.10;13.20;;;2.20;99.90;;;;;;4998377;27;94476;-31
2023/01/18 09:49:42;;;;;;;14.52;12.90;;;2.00;99.90;;;;;;5014310;27;94954;-30
2023/01/18 09:52:19;;;;;;;22.05;13.40;;;1.90;99.90;;;;;;5011233;27;94321;-31
2023/01/18 09:54:53;;;;;;;17.67;13.43;;;1.80;99.90;;;;;;5004689;27;92145;-32
2023/01/18 09:57:36;;;;;;;16.77;13.65;;;1.90;99.90;;;;;;4999763;27;94653;-32
2023/01/18 10:00:06;;;;;;;17.13;13.25;;;1.90;99.90;;;;;;5005869;28;95897;-35
2023/01/18 10:02:38;;;;;;;17.45;12.95;;;2.00;99.90;;;;;;4997736;27;93506;-34
2023/01/18 10:05:12;;;;;;;19.20;13.65;;;2.10;99.90;;;;;;4996527;27;93176;-32
2023/01/18 10:08:01;;;;;;;13.35;11.68;;;2.20;99.90;;;;;;4997164;27;94820;-30
2023/01/18 10:10:37;;;;;;;16.42;12.75;;;2.20;99.90;;;;;;4997899;27;96059;-31
2023/01/18 10:13:34;;;;;;;20.17;14.77;;;2.10;99.90;;;;;;5009761;27;92998;-31
2023/01/18 10:16:01;;;;;;;16.40;12.07;;;2.00;99.90;;;;;;5010576;28;93556;-31
2023/01/18 10:18:27;;;;;;;15.13;13.43;;;1.90;99.90;;;;;;4996587;27;94229;-34
2023/01/18 10:21:00;;;;;;;17.38;13.10;;;1.90;99.90;;;;;;5011052;28;95211;-35
2023/01/18 10:23:44;;;;;;;13.77;12.38;;;1.90;99.90;;;;;;4996907;27;93488;-33
2023/01/18 10:26:27;;;;;;;13.73;12.32;;;1.90;99.90;;;;;;4996669;27;93605;-34
2023/01/18 10:28:59;;;;;;;13.65;11.95;;;2.00;99.90;;;;;;4995932;27;94895;-35
2023/01/18 10:31:33;;;;;;;13.25;11.73;;;2.10;99.90;;;;;;5002270;27;94444;-32
2023/01/18 10:34:01;;;;;;;12.57;11.25;;;2.10;99.90;;;;;;5015586;28;94346;-32
2023/01/18 10:36:42;;;;;;;13.98;12.15;;;2.20;99.90;;;;;;5017439;28;94251;-34
2023/01/18 10:39:22;;;;;;;15.55;12.18;;;2.30;99.90;;;;;;5021489;27;94729;-33
2023/01/18 10:41:49;;;;;;;14.52;12.88;;;2.30;99.90;;;;;;5010454;27;93413;-34
2023/01/18 10:44:15;;;;;;;14.73;10.40;;;2.40;99.90;;;;;;4996298;28;94489;-34
2023/01/18 10:46:41;;;;;;;13.85;11.77;;;2.50;99.90;;;;;;4996330;27;93516;-31
2023/01/18 10:49:27;;;;;;;12.15;10.93;;;2.60;99.90;;;;;;5011766;28;95702;-32
2023/01/18 10:51:52;;;;;;;13.27;10.48;;;2.60;99.90;;;;;;5018110;28;95520;-31
2023/01/18 10:54:24;;;;;;;15.20;11.68;;;2.70;99.90;;;;;;5024651;27;93550;-34
2023/01/18 10:57:01;;;;;;;14.00;12.50;;;2.70;99.90;;;;;;5009664;28;93884;-35
2023/01/18 10:59:34;;;;;;;11.52;10.32;;;2.80;99.90;;;;;;5007876;27;94260;-32
2023/01/18 11:02:00;;;;;;;12.15;10.68;;;2.90;99.90;;;;;;5022770;27;95740;-31
2023/01/18 11:04:31;;;;;;;20.23;11.45;;;2.90;99.90;;;;;;5035684;27;92956;-31
2023/01/18 11:07:00;;;;;;;14.57;10.93;;;2.90;99.90;;;;;;5036285;27;92565;-32
2023/01/18 11:09:34;;;;;;;;;;;3.00;99.90;;;;;;5035606;27;94864;-33
2023/01/18 11:12:44;;;;;;;12.68;10.50;;;3.00;99.90;;;;;;5032992;27;92964;-32
2023/01/18 11:15:12;;;;;;;19.00;10.73;;;3.10;99.90;;;;;;4999322;27;94060;-31
2023/01/18 11:18:00;;;;;;;14.27;10.10;;;3.10;99.90;;;;;;4996187;27;93871;-32
2023/01/18 11:20:37;;;;;;;11.45;10.00;;;3.20;99.90;;;;;;4986029;28;95000;-34
2023/01/18 11:23:09;;;;;;;10.10;9.10;;;3.20;99.90;;;;;;4996157;28;93799;-31
2023/01/18 11:25:48;;;;;;;15.43;11.07;;;3.30;99.90;;;;;;4997143;28;94235;-32
2023/01/18 11:28:18;;;;;;;15.23;11.25;;;3.40;99.90;;;;;;4996208;27;92689;-31
2023/01/18 11:31:12;;;;;;;11.43;9.25;;;3.40;99.90;;;;;;5007242;27;94449;-33
2023/01/18 11:34:02;;;;;;;10.90;9.80;;;3.50;99.90;;;;;;5005551;27;94569;-31
2023/01/18 11:36:40;;;;;;;10.93;9.80;;;3.50;99.90;;;;;;5003029;28;92140;-34
2023/01/18 11:39:30;;;;;;;11.60;9.00;;;3.60;99.90;;;;;;4996615;27;94397;-31
2023/01/18 11:42:12;;;;;;;12.18;8.27;;;3.70;99.90;;;;;;4995640;27;96750;-31
2023/01/18 11:44:48;;;;;;;12.77;10.25;;;3.70;99.90;;;;;;4997175;27;95661;-32
2023/01/18 11:47:22;;;;;;;11.90;10.20;;;3.70;99.90;;;;;;5008034;28;94280;-33
2023/01/18 11:50:01;;;;;;;11.93;10.30;;;3.80;99.90;;;;;;4997810;27;92165;-33
2023/01/18 11:52:45;;;;;;;12.40;9.18;;;3.80;99.90;;;;;;5010358;27;94947;-34
2023/01/18 11:55:22;;;;;;;11.13;9.52;;;3.80;99.90;;;;;;4996678;27;94311;-34
2023/01/18 11:57:49;;;;;;;14.70;10.98;;;3.90;99.90;;;;;;4996685;27;92328;-34
2023/01/18 12:00:15;;;;;;;11.43;10.27;;;4.00;99.90;;;;;;4995788;27;93257;-31
2023/01/18 12:02:55;;;;;;;12.20;11.00;;;4.00;99.90;;;;;;4999835;28;94890;-33
2023/01/18 12:05:46;;;;;;;10.90;9.50;;;4.10;99.90;;;;;;5002421;27;94585;-31
2023/01/18 12:08:25;;;;;;;16.20;11.02;;;4.10;99.90;;;;;;4990208;28;94264;-33
2023/01/18 12:11:11;;;;;;;11.50;10.07;;;4.10;99.90;;;;;;5008149;27;93381;-33
2023/01/18 12:13:58;;;;;;;13.02;10.77;;;4.10;99.90;;;;;;4982949;28;94524;-33
2023/01/18 12:16:43;;;;;;;11.80;10.63;;;4.20;99.90;;;;;;4995299;27;93749;-36
2023/01/18 12:19:40;;;;;;;13.75;11.07;;;4.20;99.90;;;;;;4995649;27;92606;-31
2023/01/18 12:22:30;;;;;;;13.02;10.00;;;4.20;99.90;;;;;;4994613;27;92120;-32
2023/01/18 12:25:09;;;;;;;10.77;9.32;;;4.30;99.90;;;;;;4994470;27;94058;-32
2023/01/18 12:28:03;;;;;;;11.40;10.25;;;4.30;99.90;;;;;;4999471;27;94396;-34
2023/01/18 12:30:40;;;;;;;13.85;10.52;;;4.30;99.90;;;;;;5019769;27;94616;-32
2023/01/18 12:33:31;;;;;;;14.52;10.10;;;4.40;99.90;;;;;;5082586;27;88693;-43
2023/01/18 12:36:12;;;;;;;15.48;10.75;;;4.40;99.90;;;;;;5066082;27;89687;-37
2023/01/18 12:38:44;;;;;;;10.43;9.27;;;4.40;99.90;;;;;;5071399;27;87785;-36
2023/01/18 12:41:16;;;;;;;12.43;10.45;;;4.40;99.90;;;;;;5077261;27;89161;-37
2023/01/18 12:44:17;;;;;;;16.33;10.60;;;4.50;99.90;;;;;;5069863;27;89989;-38
2023/01/18 12:47:18;;;;;;;10.52;9.52;;;4.50;99.90;;;;;;5074998;27;88852;-37
2023/01/18 12:49:50;;;;;;;15.07;10.77;;;4.60;99.90;;;;;;5069453;27;88353;-36
2023/01/18 12:52:20;;;;;;;11.88;9.65;;;4.60;99.90;;;;;;5073909;27;90406;-38
2023/01/18 12:54:58;;;;;;;13.98;11.30;;;4.60;99.90;;;;;;5074311;27;89585;-38
2023/01/18 12:57:24;;;;;;;12.13;8.45;;;4.60;99.90;;;;;;5074578;27;87856;-36
2023/01/18 13:00:05;;;;;;;15.43;8.70;;;4.60;99.90;;;;;;5076036;27;88334;-39
2023/01/18 13:02:36;;;;;;;11.77;8.38;;;4.60;99.90;;;;;;5076871;27;90691;-42
2023/01/18 13:05:11;;;;;;;11.88;8.80;;;4.60;99.90;;;;;;5076411;27;89572;-39
2023/01/18 13:07:44;;;;;;;9.93;7.18;;;4.50;99.90;;;;;;5076168;27;88905;-35
2023/01/18 13:10:23;;;;;;;10.15;9.00;;;4.60;99.90;;;;;;5076073;27;87638;-38
2023/01/18 13:12:50;;;;;;;9.38;7.75;;;4.60;99.90;;;;;;5074191;27;90163;-42
2023/01/18 13:15:32;;;;;;;10.27;8.30;;;4.50;99.90;;;;;;5075771;27;89687;-38
2023/01/18 13:18:17;;;;;;;11.20;8.60;;;4.50;99.90;;;;;;5073479;27;88976;-42
2023/01/18 13:21:15;;;;;;;9.23;7.10;;;4.40;99.90;;;;;;5074893;27;89526;-39
2023/01/18 13:24:10;;;;;;;8.77;7.50;;;4.50;99.90;;;;;;5073752;27;89934;-42
2023/01/18 13:26:35;;;;;;;13.02;7.10;;;4.40;99.90;;;;;;5073048;27;89175;-45